Martes, 28 de Julio del 2015

portal contactenos mapa del sitio buscar Revisar Correo Corporativo

Reporte METAR Consolidado

|| Reporte TAF Consolidado ||

Informe METAR emitido cada hora.

METAR

ESTACIÓN

AEROPUERTO

HORA UTC

DESCRIPCIÓN

SLGM

Guayaramerín

10-49S|65-20W

16:00

SLGM 281600Z 19004KT 9999 SCT017 BKN200 32/22 Q1015 A2998 HR55=

SLRI

Riberalta

11-00S|66-04W

16:00

SLRI 281600Z 36006KT 9999 FEW017 BKN200 32/21 Q1014 A2995 HR52 FU=

SLCO

Cobija

11-02S|68-47W

16:00

SLCO 281600Z 36004KT 9999 SCT027 32/23 Q1015 A2998 987.8 HR60 CI=

SLJO

San Joaquin

13-03S|64-39W

16:00

SLJO 281600Z 32006KT 9999 NSC 32/22 Q1015 A2997 HR55 CI RWY NML=

SLRA

San Ramón

13-15S|64-36W

16:00

SLRA 281600Z 32006KT 9999 FEW017 BKN200 32/23 Q1014 A2997 HR60 RWY NML=

SLMG

San Magdalena

13-15S|64-03W

16:00

SLMG 281600Z 32004KT 9999 NSC 32/22 Q1014 A2996 HR54 CI RWY NML=

SLBU

Baures

13-39S|63-42W

16:00

SLBU 281600Z 35006KT 9999 FEW020 BKN200 33/20 Q1014 A2997 HR48 RWY NML=

SLSA

Santa Ana de Yacuma

13-45S|65-26W

16:00

SLSA 281600Z 32008KT 9999 FEW020 BKN200 31/22 Q1014 A2995 HR57=

SLSR

Santa Rosa

14-04S|66-47W

16:00

SLSR 281600Z 35008KT 9999 NSC 31/24 Q1011 A2987 HR65 CI RWY NML=

SLRY

Reyes

14-18S|67-21W

16:00

SLRY 281600Z 34008KT 9999 FEW017 BKN200 31/22 Q1015 A3000 HR61 RWY OPR 700M C206=

SLRQ

Rurrenabaque

14-25S|67-29W

16:00

SLRQ 281600Z 00000KT 9999 FEW017 BKN200 30/24 Q1014 A2995 HR69=

SLAP

Apolo

14-44S|68-24W

-

Mensaje no Recibido

SLTR

Trinidad

14-49S|64-54W

16:00

SLTR 281600Z 28007KT 240V320 9999 NSC 31/22 Q1014 A2995 995.7 HR62 CI NOSIG=

SLSB

San Borja

14-51S|66-44W

16:00

SLSB 281600Z 30010KT 9999 FEW020 SCT200 30/23 Q1013 A2992 HR66 RWY NML=

SLSM

San Ignacio de Moxos

14-57S|65-38W

16:00

SLSM 281600Z 27010KT 9999 FEW017 BKN200 30/22 Q1012 A2990 HR62 RWY NML=

SLAS

Ascención de Guarayos

15-55S|63-09W

16:00

SLAS 281600Z 36006KT 9999 NSC 30/22 Q1016 A3000 HR62 RWY NML=

SLCP

Concepción

16-08S|62-01W

16:00

SLCP 281600Z 36012KT 9999 NSC 29/19 Q1017 A3003 HR54 RWY NML=

SLLP

Internaciónal El Alto

16-08S|68-10W

16:00

SLLP 281600Z 18006KT 9999 FEW017 BKN200 15/M14 Q1039 A3069 628.9 P90// HR12 NOSIG=

SLJV

San Javier

16-16S|62-28W

16:00

SLJV 281600Z 36010KT 9999 NSC 29/21 Q1014 A2994 HR60 RWY NML=

SLTI

San Matías

16-20S|58-24W

16:00

SLTI 281600Z 36005KT 9999 NSC 34/19 Q1020 A3012 HR41 RWY NML=

SLSI

San Ignacio de Velasco

16-23S|60-57W

16:00

SLSI 281600Z 36006KT 9999 NSC 30/22 Q1015 A2997 HR63 RWY NML=

SLCB

Cochabamba

17-25S|66-10W

17:00

SLCB 281700Z 00000KT 9000 NSC 26/M07 Q1024 A3026 751.2 HR12 FU CI NOSIG=

SLCN

Charaña

17-35S|69-25W

-

Mensaje no Recibido

SLVR

Internaciónal Viru Viru

17-38S|63-08W

16:00

SLVR 281600Z 35020G33KT 9999 BKN020 30/19 Q1013 A2993 HR52 CI NOSIG=

SLET

El Trompillo

17-48S|63-10W

16:00

SLET 281600Z 31021G39KT 9999 SCT017 28/19 Q1012 A2989 HR59 CI NOSIG=

SLJE

San José de Chiquitos

17-49S|60-44W

16:00

SLJE 281600Z 02012KT 9999 NSC 32/19 Q1016 A3000 HR48 RWY NML=

SLOR

Oruro

17-57S|67-04W

16:00

SLOR 281600Z 20005KT 9999 NSC 14/M04 Q1038 A3066 658.2 CI HR29=

SLRB

Roboré

18-19S|59-45W

16:00

SLRB 281600Z 36012KT 9999 NSC 31/20 Q1016 A3000 HR57 RWY NML=

SLVG

Valle Grande

18-28S|64-05W

14:00

SLVG 281400Z 00000KT 9999 NSC 17/12 Q1024 A3024 HR68 RWY NML=

SLPS

Puerto Suárez

18-58S|57-49W

16:00

SLPS 281600Z 09006KT 9999 NSC 29/21 Q1013 A2992 HR63 FU=

SLSU

Sucre

19-00S|65-17W

16:00

SLSU 281600Z 14005KT 9999 NSC 21/M01 Q1029 A3041 HR23=

SLPO

Potosí

19-32S|65-43W

16:00

SLPO 281600Z NIL=

SLAG

Monteagudo

19-49S|63-58W

16:00

SLAG 281600Z WO ATTN=

SLCA

Camiri

20-00S|63-31W

16:00

SLCA 281600Z 00000KT 9999 NSC 25/17 Q1013 A2991 HR60 RWY NML=

SLUY

Uyuni

20-27S|62-52W

-

SLUY QRX 1700Z=

SLVM

Villamontes

21-15S|63-24W

16:00

SLVM 281600Z 36005KT 9999 NSC 29/19 Q1009 A2980 HR56=

SLTJ

Tarija

21-33S|64-42W

16:00

SLTJ 281600Z 00000KT 9999 NSC 24/06 Q1019 A3010 HR30=

SLYA

Yacuiba

21-57S|63-39W

16:00

SLYA 281600Z 05008KT 9999 NSC 29/22 Q1011 A2988 HR67 FU=

SLBJ

Bermejo

22-46S|64-18W

-

SLBJ 281600 NIL=